ADDS TAF Board (Experimental) INFO Settings
IDs: Format: Expanded Condensed

KPDX - Portland Intl Arpt, OR, US

Issued at 0520 UTC 29 Aug 2016
Updated at 0707 UTC 29 Aug 2016
Time0653Z 29/08Z 29/09Z 29/10Z 29/11Z 29/12Z 29/13Z 29/14Z 29/15Z 29/16Z 29/17Z 29/18Z 29/19Z 29/20Z
Type OBS PRVL PRVL PRVL PRVL PRVL PRVL PRVL PRVL PRVL PRVL PRVL PRVL PRVL
VIS 10 >6 >6 >6 >6 >6 >6 >6 >6 >6 >6 >6 >6 >6
CIG 250 -- -- -- -- -- -- -- -- -- -- -- -- --
Cover BKN SCT SCT SCT SCT SCT SCT SCT SCT SCT SCT SCT SCT SCT
FltCat VFR VFR VFR VFR VFR VFR VFR VFR VFR VFR VFR VFR VFR VFR
WX -- -- -- -- -- -- -- -- -- -- -- -- -- --
WDir 330 310 310 310 310 310 310 VRB VRB VRB 250 250 250 250
WSpd 5 6 6 6 6 6 6 3 3 3 8 8 8 8
WGst -- -- -- -- -- -- -- -- -- -- -- -- -- --
R03/21
XWnd 5 6 6 6 6 6 6 VRB VRB VRB 3 3 3 3
HWnd 1 -1 -1 -1 -1 -1 -1 VRB VRB VRB -7 -7 -7 -7
R10/28
XWnd 3 1 1 1 1 1 1 VRB VRB VRB -6 -6 -6 -6
HWnd -4 -6 -6 -6 -6 -6 -6 VRB VRB VRB -5 -5 -5 -5

Raw TAF
KPDX 290520Z 2906/3006 31006KT P6SM SCT250
  FM291400 VRB03KT P6SM SCT025
  FM291700 25008KT P6SM SCT250
  FM300100 30007KT P6SM FEW250


Raw METAR
KPDX 290653Z 33005KT 10SM BKN250 19/12 A3002 RMK AO2 SLP164 T01940117
KPDX 290553Z 33004KT 10SM BKN250 21/11 A3002 RMK AO2 SLP163 T02110106 10289 20211 52013
KPDX 290453Z 32006KT 10SM CLR 23/11 A3000 RMK AO2 SLP158 T02280111

METAR Board
Radar Display
Forecast Discussion

TAF Board Legend

Potential Impact
Threat None Slight Moderate High
Visibility (sm) ≥5.1 5.1>X≥3 3>X≥1 <1
Ceiling (100 ft) ≥30.1 30.1>X≥10 10>X≥5 <5
Wind Speed (kt) <10 10≤X<20 20≤X<30 ≥30
Wind Gust (kt) <15 15≤X<25 25≤X<35 ≥35
Weather No Wx Reported VCTS,-TS,-FZRA,SN TS,FZRA +TS,+FZRA,+SN